M I D A S
Marine Information and Data Acquisition System
Tripno 688 of the Zeeleeuw from 2004-04-26 06:30:06 to 2004-04-26 12:57:17
Back to CruiseResearch ActivitiesStationsMapUnderway DataData graphs

EquipmentUnitsComments
TimeDGPSUTC
LatitudeDGPSDM.mWGS84
LongitudeDGPSDM.mWGS84
SpeedMeteo Stationm/sRelative wind speed
DirectionMeteo StationdegRelative wind direction
TemperatureMeteo Stationdeg CelciusAir temperature
PressureMeteo StationPaAtmospheric pressure
HumidityMeteo Station%Relative humidity
Missing or incorrect values are displayed as -999
Metereological data collected by the RV Zeeleeuw from 2004-04-26 06:30:06 to 2004-04-26 12:57:17
Time Latitude Longitude Speed Direction Temperature Pressure Humidity
2004-04-26 06:31 51°13.599 2°56.083 2.3 43 12.7 102200 62
2004-04-26 06:32 51°13.632 2°55.979 0.5 86 12.6 102200 62
2004-04-26 06:33 51°13.663 2°55.841 1.5 159 12.7 102200 63
2004-04-26 06:34 51°13.666 2°55.761 2 94 12.7 102200 63
2004-04-26 06:35 51°13.724 2°55.741 1.2 105 12.8 102200 63
2004-04-26 06:36 51°13.82 2°55.641 1.5 37 12.8 102200 63
2004-04-26 06:37 51°13.945 2°55.553 1.9 24 12.8 102200 62
2004-04-26 06:38 51°14.073 2°55.459 1.1 39 12.8 102200 62
2004-04-26 06:39 51°14.219 2°55.328 2.7 8 12.9 102200 62
2004-04-26 06:40 51°14.366 2°55.076 4.2 351 12.9 102200 63
2004-04-26 06:41 51°14.526 2°54.812 3.1 357 12.9 102200 63
2004-04-26 06:42 51°14.703 2°54.581 1.8 20 12.9 102200 62
2004-04-26 06:43 51°14.915 2°54.348 2.7 20 12.9 102190 62
2004-04-26 06:44 51°15.121 2°54.12 2.7 20 12.9 102190 64
2004-04-26 06:45 51°15.312 2°53.9 2.6 15 12.9 102200 63
2004-04-26 06:46 51°15.497 2°53.687 2.9 8 12.9 102190 63
2004-04-26 06:47 51°15.695 2°53.478 2.7 25 12.9 102200 64
2004-04-26 06:48 51°15.896 2°53.291 2.9 35 12.9 102200 63
2004-04-26 06:49 51°16.103 2°53.133 3.8 25 12.8 102190 66
2004-04-26 06:50 51°16.316 2°52.968 4.1 26 12.8 102190 68
2004-04-26 06:51 51°16.528 2°52.806 4.3 26 12.7 102200 68
2004-04-26 06:52 51°16.74 2°52.647 4.3 27 12.6 102200 69
2004-04-26 06:53 51°16.952 2°52.486 4.9 24 12.5 102200 70
2004-04-26 06:54 51°17.163 2°52.323 4.9 29 12.5 102200 70
2004-04-26 06:55 51°17.375 2°52.156 4.7 28 12.3 102200 70
2004-04-26 06:56 51°17.558 2°51.925 3.3 10 12.2 102200 70
2004-04-26 06:57 51°17.698 2°51.647 3.5 8 12.1 102210 71
2004-04-26 06:58 51°17.85 2°51.345 3.6 6 12.1 102210 71
2004-04-26 06:59 51°17.992 2°51.066 3.4 1 12.1 102210 71
2004-04-26 07:00 51°18.128 2°50.752 3.6 357 12.1 102210 71
2004-04-26 07:01 51°18.263 2°50.392 3.7 356 12.1 102210 71
2004-04-26 07:02 51°18.378 2°50.083 3.8 355 12.1 102210 72
2004-04-26 07:03 51°18.513 2°49.73 3.9 352 12.1 102210 72
2004-04-26 07:04 51°18.635 2°49.409 3.9 350 12.1 102210 72
2004-04-26 07:05 51°18.759 2°49.087 4 351 12.1 102210 73
2004-04-26 07:06 51°18.883 2°48.764 4.2 349 12.1 102210 73
2004-04-26 07:07 51°19.019 2°48.417 4.1 347 12.1 102210 74
2004-04-26 07:08 51°19.145 2°48.096 3.8 348 12.1 102210 74
2004-04-26 07:09 51°19.271 2°47.779 3.9 351 12 102210 74
2004-04-26 07:10 51°19.403 2°47.454 4 352 12 102210 75
2004-04-26 07:11 51°19.527 2°47.14 4.3 352 12 102210 75
2004-04-26 07:12 51°19.651 2°46.82 4.6 351 12 102210 76
2004-04-26 07:13 51°19.771 2°46.505 4.3 346 11.9 102210 77
2004-04-26 07:14 51°19.893 2°46.187 3.9 340 11.9 102210 77
2004-04-26 07:15 51°19.96 2°45.841 5.3 334 11.9 102210 77
2004-04-26 07:16 51°20.01 2°45.479 5.5 337 11.9 102210 76
2004-04-26 07:17 51°20.063 2°45.116 5.6 340 11.9 102200 76
2004-04-26 07:18 51°20.122 2°44.736 5 338 11.9 102200 75
2004-04-26 07:19 51°20.177 2°44.378 5.7 344 11.9 102200 75
2004-04-26 07:20 51°20.251 2°44.022 6.2 351 11.9 102200 75
2004-04-26 07:21 51°20.372 2°43.632 5.7 350 11.8 102210 75
2004-04-26 07:22 51°20.475 2°43.292 6.2 351 11.8 102210 75
2004-04-26 07:23 51°20.553 2°42.942 7.2 356 11.8 102200 75
2004-04-26 07:24 51°20.577 2°42.57 7.3 352 11.7 102210 76
2004-04-26 07:25 51°20.603 2°42.197 6.6 353 11.6 102200 76
2004-04-26 07:26 51°20.63 2°41.821 7.2 358 11.6 102200 75
2004-04-26 07:27 51°20.662 2°41.421 7.3 2 11.6 102200 76
2004-04-26 07:28 51°20.695 2°41.041 6.6 359 11.5 102200 76
2004-04-26 07:29 51°20.729 2°40.667 6.6 359 11.4 102200 76
2004-04-26 07:30 51°20.764 2°40.302 6.4 358 11.4 102200 76
2004-04-26 07:31 51°20.789 2°39.921 7 358 11.4 102200 75
2004-04-26 07:32 51°20.802 2°39.547 6.5 357 11.4 102200 75
2004-04-26 07:33 51°20.815 2°39.178 6.6 358 11.4 102200 75
2004-04-26 07:34 51°20.827 2°38.8 6.4 357 11.4 102200 75
2004-04-26 07:35 51°20.841 2°38.413 6.5 358 11.4 102200 75
2004-04-26 07:36 51°20.854 2°38.038 6.9 358 11.4 102200 75
2004-04-26 07:37 51°20.868 2°37.664 6.3 357 11.4 102200 76
2004-04-26 07:38 51°20.884 2°37.28 7 359 11.3 102200 76
2004-04-26 07:39 51°20.898 2°36.902 7.2 1 11.3 102200 76
2004-04-26 07:41 51°20.915 2°36.494 6.8 357 11.3 102200 76
2004-04-26 07:42 51°20.93 2°36.124 6.3 356 11.2 102200 76
2004-04-26 07:43 51°20.946 2°35.753 6.4 357 11.2 102200 76
2004-04-26 07:44 51°20.961 2°35.381 6.4 360 11.2 102200 77
2004-04-26 07:45 51°20.978 2°34.998 6.6 357 11.2 102200 77
2004-04-26 07:46 51°21 2°34.576 6.3 358 11.2 102200 77
2004-04-26 07:47 51°21.02 2°34.213 6.8 2 11.2 102200 77
2004-04-26 07:48 51°21.042 2°33.838 6.6 4 11.2 102200 77
2004-04-26 07:49 51°21.059 2°33.459 6.7 1 11.1 102200 78
2004-04-26 07:50 51°21.108 2°33.109 6 2 11.1 102200 78
2004-04-26 07:51 51°21.307 2°32.936 6.4 11 11 102200 77
2004-04-26 07:52 51°21.566 2°32.864 6.5 14 11.1 102190 78
2004-04-26 07:53 51°21.799 2°32.807 6.2 15 11.1 102200 78
2004-04-26 07:54 51°22.032 2°32.749 5.8 17 11.2 102200 78
2004-04-26 07:55 51°22.259 2°32.675 5.7 11 11.2 102190 77
2004-04-26 07:56 51°22.449 2°32.463 5.9 4 11.2 102190 77
2004-04-26 07:57 51°22.587 2°32.147 5.9 360 11.2 102190 77
2004-04-26 07:58 51°22.702 2°31.823 6 354 11.2 102200 77
2004-04-26 07:59 51°22.757 2°31.415 6.1 352 11.2 102190 77
2004-04-26 08:00 51°22.8 2°31.045 6.1 350 11.3 102190 76
2004-04-26 08:01 51°22.793 2°30.675 5.9 345 11.3 102180 76
2004-04-26 08:02 51°22.786 2°30.291 5.9 347 11.4 102180 76
2004-04-26 08:03 51°22.779 2°29.916 6 346 11.4 102190 76
2004-04-26 08:04 51°22.775 2°29.546 6.1 345 11.5 102190 76
2004-04-26 08:05 51°22.771 2°29.169 6.3 345 11.5 102180 75
2004-04-26 08:06 51°22.763 2°28.794 5.9 344 11.4 102190 76
2004-04-26 08:07 51°22.74 2°28.383 5.9 345 11.4 102180 76
2004-04-26 08:08 51°22.719 2°28.014 6.3 345 11.4 102180 76
2004-04-26 08:09 51°22.699 2°27.639 6.2 344 11.3 102190 77
2004-04-26 08:10 51°22.679 2°27.263 6.1 344 11.3 102190 77
2004-04-26 08:11 51°22.659 2°26.888 6.4 344 11.3 102190 77
2004-04-26 08:12 51°22.637 2°26.513 6.1 341 11.3 102190 77
2004-04-26 08:13 51°22.688 2°26.147 5 353 11.3 102190 77
2004-04-26 08:14 51°22.813 2°25.835 4.9 1 11.2 102190 77
2004-04-26 08:15 51°22.979 2°25.569 4.9 15 11.2 102190 77
2004-04-26 08:16 51°23.205 2°25.476 5.5 22 11.2 102200 77
2004-04-26 08:17 51°23.439 2°25.473 6 27 11.3 102190 77
2004-04-26 08:18 51°23.675 2°25.479 6.3 27 11.3 102190 77
2004-04-26 08:19 51°23.906 2°25.487 6.4 25 11.3 102190 77
2004-04-26 08:20 51°24.145 2°25.495 6.5 24 11.4 102190 77
2004-04-26 08:21 51°24.381 2°25.503 6.3 26 11.4 102190 77
2004-04-26 08:22 51°24.614 2°25.54 6.2 29 11.4 102190 77
2004-04-26 08:23 51°24.845 2°25.612 6.4 26 11.4 102190 77
2004-04-26 08:24 51°25.075 2°25.681 6.5 26 11.4 102190 78
2004-04-26 08:25 51°25.304 2°25.749 6.7 24 11.4 102190 79
2004-04-26 08:26 51°25.531 2°25.815 6.7 24 11.4 102190 79
2004-04-26 08:27 51°25.757 2°25.879 6.7 22 11.3 102190 79
2004-04-26 08:28 51°25.991 2°25.948 7.4   11.3 102190 80
2004-04-26 08:29 51°26.217 2°26.013 7 24 11.3 102180 80
2004-04-26 08:30 51°26.45 2°26.08 7.2 22 11.2 102190 80
2004-04-26 08:31 51°26.686 2°26.147 7.6 25 11.2 102190 80
2004-04-26 08:32 51°26.915 2°26.213 7.2 24 11.2 102180 80
2004-04-26 08:33 51°27.14 2°26.279 7.2 28 11.2 102180 80
2004-04-26 08:34 51°27.368 2°26.345 7.1 31 11.1 102180 80
2004-04-26 08:35 51°27.6 2°26.414 7.1 32 11.1 102180 80
2004-04-26 08:36 51°27.824 2°26.483 7.3 31 11 102180 80
2004-04-26 08:37 51°28.052 2°26.553 7.3 32 11 102180 81
2004-04-26 08:38 51°28.291 2°26.626 7.5 33 10.9 102180 81
2004-04-26 08:39 51°28.531 2°26.697 7.7 32 10.9 102180 81
2004-04-26 08:40 51°28.764 2°26.767 7.7 34 10.8 102180 81
2004-04-26 08:41 51°28.915 2°26.832 4.4 55 10.7 102180 82
2004-04-26 08:42 51°28.935 2°26.844 3.4 59 10.6 102190 82
2004-04-26 08:43 51°28.942 2°26.841 3.6 59 10.6 102190 83
2004-04-26 08:44 51°28.949 2°26.84 3.4 56 10.5 102180 83
2004-04-26 08:45 51°28.956 2°26.838 3.4 54 10.5 102190 83
2004-04-26 08:46 51°28.962 2°26.837 3.3 51 10.5 102190 84
2004-04-26 08:47 51°28.976 2°26.864 5.2 44 10.5 102190 84
2004-04-26 08:48 51°29.142 2°26.914 5.2 34 10.5 102180 84
2004-04-26 08:49 51°29.357 2°26.797 5.3 33 10.5 102180 84
2004-04-26 08:50 51°29.583 2°26.676 5.3 30 10.6 102180 85
2004-04-26 08:51 51°29.803 2°26.562 5.5 29 10.7 102180 84
2004-04-26 08:52 51°30.057 2°26.427 5.4 27 10.8 102180 84
2004-04-26 08:53 51°30.268 2°26.314 5.2 28 10.8 102180 84
2004-04-26 08:54 51°30.489 2°26.2 5 25 10.9 102180 84
2004-04-26 08:55 51°30.715 2°26.081 5.6 25 10.9 102180 83
2004-04-26 08:56 51°30.945 2°25.973 5.8 27 10.9 102180 83
2004-04-26 08:57 51°31.165 2°25.892 3.3 22 11 102180 83
2004-04-26 08:58 51°31.39 2°25.865 6.5 25 11 102180 83
2004-04-26 08:59 51°31.621 2°25.863 6.2 28 11 102180 82
2004-04-26 09:00 51°31.849 2°25.86 6.3 27 11.1 102180 82
2004-04-26 09:01 51°32.074 2°25.874 7.2 29 11.1 102180 82
2004-04-26 09:02 51°32.302 2°25.949 7.1 29 11.1 102180 82
2004-04-26 09:03 51°32.522 2°26.061 7.3 26 11.2 102180 82
2004-04-26 09:04 51°32.737 2°26.171 7.4 27 11.2 102180 81
2004-04-26 09:05 51°32.952 2°26.285 7.9 26 11.2 102180 81
2004-04-26 09:06 51°33.158 2°26.436 8 27 11.2 102180 81
2004-04-26 09:07 51°33.364 2°26.585 7.9 28 11.2 102180 81
2004-04-26 09:08 51°33.565 2°26.736 7.8 30 11.3 102180 81
2004-04-26 09:09 51°33.762 2°26.911 7.7 30 11.2 102180 80
2004-04-26 09:10 51°33.954 2°27.1 7.6 31 11.2 102180 80
2004-04-26 09:11 51°34.144 2°27.292 8 33 11.2 102180 80
2004-04-26 09:12 51°34.326 2°27.492 7.8 34 11.1 102180 80
2004-04-26 09:13 51°34.514 2°27.698 8.3 36 11 102180 80
2004-04-26 09:14 51°34.698 2°27.903 7.8 35 10.9 102180 81
2004-04-26 09:15 51°34.884 2°28.107 8 34 10.8 102180 81
2004-04-26 09:16 51°35.07 2°28.309 7.9 35 10.8 102180 82
2004-04-26 09:17 51°35.253 2°28.507 8.1 34 10.8 102180 82
2004-04-26 09:18 51°35.44 2°28.713 7.9 33 10.8 102180 82
2004-04-26 09:19 51°35.625 2°28.914 8.2 30 10.9 102180 83
2004-04-26 09:20 51°35.808 2°29.117 8.1 27 10.9 102180 83
2004-04-26 09:21 51°35.993 2°29.316 8.5 26 10.9 102180 83
2004-04-26 09:22 51°36.174 2°29.514 8.5 28 11 102180 83
2004-04-26 09:23 51°36.361 2°29.717 8.4 30 11 102180 83
2004-04-26 09:24 51°36.542 2°29.914 8 31 11 102170 83
2004-04-26 09:25 51°36.726 2°30.117 7.9 32 11 102170 83
2004-04-26 09:26 51°36.914 2°30.32 8.1 33 11 102170 83
2004-04-26 09:27 51°37.098 2°30.522 8.2 33 10.9 102170 83
2004-04-26 09:28 51°37.283 2°30.722 8.4 33 10.9 102170 82
2004-04-26 09:29 51°37.466 2°30.924 8.6 33 10.9 102170 82
2004-04-26 09:30 51°37.651 2°31.123 8.2 31 10.9 102170 83
2004-04-26 09:31 51°37.833 2°31.321 8.2 27 10.9 102170 83
2004-04-26 09:32 51°38.017 2°31.517 8.5 27 11 102170 83
2004-04-26 09:33 51°38.207 2°31.723 8.7 23 11 102170 83
2004-04-26 09:34 51°38.396 2°31.927 9.1 24 11.1 102170 83
2004-04-26 09:35 51°38.58 2°32.13 9 25 11.1 102170 83
2004-04-26 09:36 51°38.765 2°32.332 8.9 25 11.1 102170 83
2004-04-26 09:37 51°38.95 2°32.535 8.5 27 11.1 102170 83
2004-04-26 09:38 51°39.135 2°32.738 8.2 29 11 102170 83
2004-04-26 09:39 51°39.32 2°32.942 8.7 26 11 102170 84
2004-04-26 09:40 51°39.504 2°33.145 8.7 26 11 102170 84
2004-04-26 09:41 51°39.687 2°33.349 8.6 26 11 102170 84
2004-04-26 09:42 51°39.874 2°33.558 8.3 27 11 102170 84
2004-04-26 09:43 51°40.055 2°33.761 8.4 24 11 102170 84
2004-04-26 09:44 51°40.239 2°33.967 9.1 23 11 102170 84
2004-04-26 09:45 51°40.42 2°34.169 8.8 24 11 102170 84
2004-04-26 09:46 51°40.608 2°34.376 8.8 23 11 102170 84
2004-04-26 09:47 51°40.793 2°34.581 8.6 22 11 102170 84
2004-04-26 09:48 51°40.976 2°34.785 8.7 23 10.9 102170 84
2004-04-26 09:49 51°41.161 2°34.989 9 20 10.9 102160 84
2004-04-26 09:50 51°41.34 2°35.187 9.2 20 10.9 102160 84
2004-04-26 09:51 51°41.525 2°35.39 9.4 19 10.9 102170 84
2004-04-26 09:52 51°41.685 2°35.629 9.2 18 10.9 102170 84
2004-04-26 09:53 51°41.821 2°35.894 8.9 19 10.8 102160 84
2004-04-26 09:54 51°41.905 2°36.213 10.2 11 10.8 102160 84
2004-04-26 09:55 51°41.857 2°36.546 9.4 6 10.8 102160 84
2004-04-26 09:56 51°41.793 2°36.894 9.6 6 10.8 102160 84
2004-04-26 09:57 51°41.728 2°37.232 9.7 4 10.8 102160 85
2004-04-26 09:58 51°41.64 2°37.572 9.3 2 10.8 102160 85
2004-04-26 09:59 51°41.546 2°37.901 9.4 2 10.8 102160 85
2004-04-26 10:00 51°41.454 2°38.232 9.4 1 10.8 102160 85
2004-04-26 10:01 51°41.365 2°38.559 9.7 1 10.8 102160 85
2004-04-26 10:02 51°41.274 2°38.899 9.6   10.8 102150 85
2004-04-26 10:03 51°41.184 2°39.233 9.7 360 10.8 102150 85
2004-04-26 10:04 51°41.094 2°39.563 9.9   10.8 102150 85
2004-04-26 10:05 51°40.997 2°39.883 9.4   10.9 102150 85
2004-04-26 10:06 51°40.89 2°40.209 9.7   10.9 102150 85
2004-04-26 10:07 51°40.785 2°40.529 10.1 2 10.9 102150 85
2004-04-26 10:08 51°40.68 2°40.848 10.4 2 10.9 102150 85
2004-04-26 10:09 51°40.576 2°41.167 9.8 3 10.9 102140 85
2004-04-26 10:10 51°40.473 2°41.479 10 1 10.9 102140 85
2004-04-26 10:11 51°40.366 2°41.801 10 359 10.9 102150 85
2004-04-26 10:12 51°40.262 2°42.119 9.2 360 11 102150 85
2004-04-26 10:13 51°40.157 2°42.442 9.5 360 10.9 102140 85
2004-04-26 10:14 51°40.052 2°42.761 9.4 358 11 102140 85
2004-04-26 10:15 51°39.949 2°43.08 9.3 358 11 102140 85
2004-04-26 10:16 51°39.846 2°43.4 9.4 360 11 102140 85
2004-04-26 10:17 51°39.746 2°43.702 10 357 11 102140 85
2004-04-26 10:18 51°39.636 2°44.037 9.4 359 11.1 102140 85
2004-04-26 10:19 51°39.533 2°44.351 9.9 355 11.1 102140 85
2004-04-26 10:20 51°39.425 2°44.675 9.6 355 11.1 102140 85
2004-04-26 10:21 51°39.32 2°44.995 9.4 354 11.1 102140 85
2004-04-26 10:22 51°39.219 2°45.298 8.4 355 11.2 102130 85
2004-04-26 10:23 51°39.03 2°45.409 5.6 351 11.2 102150 85
2004-04-26 10:24 51°38.798 2°45.25 6.5 351 11.3 102140 85
2004-04-26 10:25 51°38.574 2°45.099 6.7 351 11.4 102140 85
2004-04-26 10:26 51°38.349 2°44.947 7.3 348 11.5 102140 85
2004-04-26 10:27 51°38.181 2°44.695 5.2 351 11.7 102140 85
2004-04-26 10:28 51°38.135 2°44.318 5.3 360 11.7 102140 84
2004-04-26 10:29 51°38.111 2°43.925 5.6   11.7 102140 83
2004-04-26 10:30 51°38.114 2°43.538 5.5 3 11.6 102140 83
2004-04-26 10:31 51°38.12 2°43.151 5.7 6 11.6 102140 83
2004-04-26 10:32 51°38.124 2°42.763 5.8 4 11.5 102140 83
2004-04-26 10:33 51°38.128 2°42.375 5.9 6 11.5 102140 83
2004-04-26 10:34 51°38.13 2°41.989 5.8 6 11.4 102140 83
2004-04-26 10:35 51°38.132 2°41.601 6 9 11.4 102130 83
2004-04-26 10:36 51°38.135 2°41.205 6.2 14 11.4 102130 84
2004-04-26 10:37 51°38.112 2°40.836 5.9 8 11.5 102130 84
2004-04-26 10:38 51°37.99 2°40.468 6.1 4 11.4 102130 84
2004-04-26 10:39 51°37.822 2°40.175 6.2 355 11.4 102130 84
2004-04-26 10:40 51°37.625 2°39.935 6.9 352 11.5 102130 84
2004-04-26 10:41 51°37.428 2°39.696 6.9 352 11.5 102120 83
2004-04-26 10:42 51°37.214 2°39.501 7 351 11.6 102120 83
2004-04-26 10:43 51°36.995 2°39.394 7.7 349 11.7 102120 82
2004-04-26 10:44 51°36.744 2°39.266 7.2 350 11.7 102120 82
2004-04-26 10:45 51°36.508 2°39.143 7.9 350 11.8 102120 81
2004-04-26 10:46 51°36.285 2°39.023 7.7 350 11.8 102110 80
2004-04-26 10:47 51°36.038 2°38.888 7.5 350 11.9 102120 79
2004-04-26 10:48 51°35.803 2°38.757 7.6 350 11.9 102110 79
2004-04-26 10:49 51°35.564 2°38.695 7.4 351 12 102110 78
2004-04-26 10:50 51°35.328 2°38.727 8.3 353 12.1 102100 78
2004-04-26 10:51 51°35.104 2°38.864 8.6 352 12.1 102100 78
2004-04-26 10:52 51°34.923 2°39.08 9 355 12.1 102100 78
2004-04-26 10:53 51°34.755 2°39.323 8.4 355 12.1 102100 78
2004-04-26 10:54 51°34.581 2°39.557 8 356 12.1 102100 78
2004-04-26 10:55 51°34.406 2°39.787 8 354 12.1 102100 79
2004-04-26 10:56 51°34.233 2°40.008 7.6 352 12 102100 79
2004-04-26 10:57 51°34.027 2°40.163 7 346 12 102100 80
2004-04-26 10:58 51°33.792 2°40.193 6.6 347 12 102100 80
2004-04-26 10:59 51°33.543 2°40.13 6.2 348 12 102100 81
2004-04-26 11:00 51°33.298 2°40.077 6.5 347 11.9 102100 81
2004-04-26 11:01 51°33.054 2°40.011 6.1 347 11.9 102100 81
2004-04-26 11:02 51°32.81 2°39.932 6.1 347 11.9 102100 82
2004-04-26 11:03 51°32.567 2°39.845 5.1 348 11.9 102090 82
2004-04-26 11:04 51°32.331 2°39.719 5 347 11.9 102090 82
2004-04-26 11:05 51°32.09 2°39.594 4.9 348 12 102090 82
2004-04-26 11:06 51°31.856 2°39.472 5.2 347 12.1 102090 82
2004-04-26 11:07 51°31.618 2°39.347 5.1 348 12.1 102090 81
2004-04-26 11:08 51°31.38 2°39.225 4.7 346 12.1 102090 81
2004-04-26 11:09 51°31.14 2°39.108 5.1 347 12.2 102090 81
2004-04-26 11:10 51°30.896 2°38.987 4.9 346 12.2 102090 81
2004-04-26 11:11 51°30.665 2°38.868 4.8 345 12.2 102090 81
2004-04-26 11:12 51°30.419 2°38.743 4.4 343 12.3 102080 81
2004-04-26 11:13 51°30.185 2°38.603 3.8 350 12.3 102080 81
2004-04-26 11:14 51°30.001 2°38.339 4.1 25 12.4 102080 81
2004-04-26 11:15 51°29.911 2°37.968 4.8 26 12.3 102080 81
2004-04-26 11:16 51°29.826 2°37.596 4.5 28 12.2 102080 82
2004-04-26 11:17 51°29.736 2°37.213 4.5 27 12.1 102080 82
2004-04-26 11:18 51°29.646 2°36.835 4.4 24 12.1 102080 82
2004-04-26 11:19 51°29.556 2°36.458 4.5 24 12.1 102080 83
2004-04-26 11:20 51°29.464 2°36.081 4.6 23 12.1 102080 83
2004-04-26 11:21 51°29.334 2°35.748 3.6 5 12.1 102080 82
2004-04-26 11:22 51°29.114 2°35.606 5 345 12.1 102080 82
2004-04-26 11:23 51°28.878 2°35.645 7.3 347 12.1 102070 82
2004-04-26 11:24 51°28.644 2°35.718 7.4 348 12.1 102060 81
2004-04-26 11:25 51°28.413 2°35.803 6.8 342 12.2 102070 80
2004-04-26 11:26 51°28.182 2°35.887 7 343 12.3 102060 79
2004-04-26 11:27 51°27.957 2°35.99 6.6 340 12.4 102060 79
2004-04-26 11:28 51°27.708 2°36.108 6.8 338 12.4 102060 80
2004-04-26 11:30 51°27.438 2°36.233 6 336 12.4 102060 80
2004-04-26 11:31 51°27.201 2°36.342 6.3 348 12.4 102050 81
2004-04-26 11:31 51°26.977 2°36.446 7 350 12.4 102050 80
2004-04-26 11:33 51°26.737 2°36.558 6.8 353 12.6 102050 78
2004-04-26 11:34 51°26.503 2°36.666 7 351 13 102050 76
2004-04-26 11:35 51°26.271 2°36.777 7.8 356 12.9 102040 75
2004-04-26 11:35 51°26.045 2°36.883 6.9 353 13 102040 72
2004-04-26 11:37 51°25.804 2°36.997 7.3 356 13.2 102040 73
2004-04-26 11:38 51°25.57 2°37.105 7.2 354 13.2 102040 72
2004-04-26 11:39 51°25.342 2°37.232 6.8 351 13.2 102040 72
2004-04-26 11:39 51°25.128 2°37.374 6.9 341 13.3 102040 74
2004-04-26 11:41 51°24.907 2°37.527 6.5 343 13.3 102040 77
2004-04-26 11:42 51°24.693 2°37.697 6.3 347 13.2 102040 78
2004-04-26 11:43 51°24.483 2°37.862 7 355 13.3 102040 79
2004-04-26 11:43 51°24.273 2°38.003 6.4 358 13.4 102040 79
2004-04-26 11:45 51°24.022 2°38.01 6.2   13.4 102040 78
2004-04-26 11:46 51°23.778 2°37.993 5.9 1 13.4 102030 75
2004-04-26 11:47 51°23.533 2°37.982 6 4 13.5 102030 73
2004-04-26 11:48 51°23.287 2°37.972 6.2 4 13.5 102030 72
2004-04-26 11:49 51°23.043 2°37.963 6.2 3 13.5 102030 71
2004-04-26 11:50 51°22.798 2°37.953 6.3 4 13.5 102030 70
2004-04-26 11:51 51°22.555 2°37.941 5.9 2 13.6 102030 73
2004-04-26 11:52 51°22.317 2°37.95 5.9 3 13.6 102030 75
2004-04-26 11:53 51°22.079 2°37.971 5.8 360 13.7 102030 75
2004-04-26 11:54 51°21.851 2°38.057 5.8 359 13.6 102020 75
2004-04-26 11:54 51°21.652 2°38.216 6.2 353 13.5 102020 73
2004-04-26 11:56 51°21.481 2°38.46 6.9 347 13.7 102020 73
2004-04-26 11:57 51°21.345 2°38.751 6.3 349 13.8 102020 73
2004-04-26 11:58 51°21.208 2°39.035 6.1 348 13.8 102020 73
2004-04-26 11:59 51°21.091 2°39.334 6.4 346 13.9 102010 74
2004-04-26 12:00 51°20.998 2°39.65 6.9 344 13.8 102010 74
2004-04-26 12:01 51°20.928 2°39.979 7.9 344 13.7 102010 74
2004-04-26 12:02 51°20.875 2°40.315 7.3 345 13.6 102000 75
2004-04-26 12:02 51°20.823 2°40.637 8.6 342 13.5 102000 75
2004-04-26 12:03 51°20.77 2°40.965 8.8 341 13.5 102000 76
2004-04-26 12:04 51°20.715 2°41.292 8.6 344 13.5 102000 76
2004-04-26 12:06 51°20.667 2°41.636 9.1 342 13.4 102000 76
2004-04-26 12:07 51°20.619 2°41.968 8.8 341 13.5 102000 77
2004-04-26 12:08 51°20.569 2°42.296 8.7 341 13.5 102000 78
2004-04-26 12:09 51°20.517 2°42.623 8.7 343 13.5 102000 76
2004-04-26 12:10 51°20.467 2°42.953 8.8 339 13.5 102000 76
2004-04-26 12:11 51°20.418 2°43.286 9.3 340 13.5 101990 74
2004-04-26 12:12 51°20.369 2°43.617 9.2 339 13.6 102000 74
2004-04-26 12:13 51°20.32 2°43.948 8.6 337 13.6 101990 74
2004-04-26 12:14 51°20.271 2°44.277 8.5 339 13.6 101990 74
2004-04-26 12:15 51°20.223 2°44.605 8.6 339 13.6 101990 71
2004-04-26 12:16 51°20.173 2°44.933 8.8 337 13.7 101990 71
2004-04-26 12:17 51°20.122 2°45.261 8.1 335 13.8 101990 70
2004-04-26 12:18 51°20.051 2°45.582 7.4 336 13.9 101990 71
2004-04-26 12:19 51°19.965 2°45.893 7.6 336 13.9 101990 72
2004-04-26 12:20 51°19.869 2°46.199 7.7 333 14 101990 72
2004-04-26 12:21 51°19.759 2°46.502 7.8 334 14 101990 72
2004-04-26 12:22 51°19.65 2°46.804 8.2 333 14 101980 71
2004-04-26 12:23 51°19.536 2°47.102 8.2 334 13.9 101980 69
2004-04-26 12:24 51°19.424 2°47.393 7.9 333 13.9 101980 68
2004-04-26 12:25 51°19.309 2°47.694 8.4 332 14 101980 67
2004-04-26 12:26 51°19.195 2°47.99 8 334 14 101980 68
2004-04-26 12:27 51°19.083 2°48.288 8.5 334 14.1 101980 69
2004-04-26 12:28 51°18.972 2°48.587 7.9 334 14.1 101980 71
2004-04-26 12:29 51°18.86 2°48.886 9.1 333 14.1 101970 72
2004-04-26 12:30 51°18.75 2°49.187 8.8 332 14 101970 73
2004-04-26 12:31 51°18.637 2°49.488 8.4 331 13.9 101970 73
2004-04-26 12:32 51°18.524 2°49.791 9.1 332 13.9 101970 74
2004-04-26 12:33 51°18.403 2°50.087 8.7 331 13.9 101970 74
2004-04-26 12:34 51°18.282 2°50.378 9.4 329 13.8 101970 74
2004-04-26 12:35 51°18.159 2°50.669 9.6 332 13.8 101970 73
2004-04-26 12:36 51°18.039 2°50.964 9.4 333 13.8 101970 73
2004-04-26 12:37 51°17.917 2°51.26 8.9 329 13.7 101970 74
2004-04-26 12:38 51°17.782 2°51.558 8.2 326 13.7 101970 74
2004-04-26 12:39 51°17.613 2°51.802 8.2 321 13.7 101970 74
2004-04-26 12:40 51°17.426 2°52.027 7.7 320 13.6 101970 74
2004-04-26 12:41 51°17.219 2°52.204 7.2 320 13.6 101970 74
2004-04-26 12:42 51°17.004 2°52.362 7.4 316 13.5 101970 74
2004-04-26 12:43 51°16.792 2°52.525 6.8 319 13.4 101970 74
2004-04-26 12:44 51°16.579 2°52.693 6.7 318 13.4 101970 75
2004-04-26 12:45 51°16.366 2°52.862 6.6 317 13.3 101960 75
2004-04-26 12:46 51°16.153 2°53.023 6.5 315 13.3 101960 75
2004-04-26 12:47 51°15.948 2°53.189 7 320 13.3 101960 75
2004-04-26 12:48 51°15.743 2°53.354 6.6 317 13.3 101960 75
2004-04-26 12:49 51°15.538 2°53.523 6.7 321 13.4 101960 75
2004-04-26 12:50 51°15.334 2°53.691 6.6 320 13.4 101960 75
2004-04-26 12:51 51°15.131 2°53.863 7.3 319 13.4 101950 74
2004-04-26 12:52 51°14.946 2°54.061 7.7 320 13.4 101950 73
2004-04-26 12:53 51°14.77 2°54.291 8.4 325 13.4 101950 72
2004-04-26 12:54 51°14.611 2°54.544 8.7 322 13.4 101950 72
2004-04-26 12:55 51°14.47 2°54.808 9.3 331 13.4 101940 72
2004-04-26 12:56 51°14.35 2°55.07 8.2 354 13.5 101940 72
2004-04-26 12:57 51°14.243 2°55.294 6 325 13.5 101950 74